sensor_id;sensor_type;location;lat;lon;timestamp;P1;durP1;ratioP1;P2;durP2;ratioP2
85160;SDS011;75526;43.726;4.346;2024-02-26T00:02:22;9.82;;;4.97;;
85160;SDS011;75526;43.726;4.346;2024-02-26T00:04:48;9.20;;;4.88;;
85160;SDS011;75526;43.726;4.346;2024-02-26T00:07:15;9.90;;;5.43;;
85160;SDS011;75526;43.726;4.346;2024-02-26T00:09:41;10.73;;;5.45;;
85160;SDS011;75526;43.726;4.346;2024-02-26T00:12:07;9.27;;;5.15;;
85160;SDS011;75526;43.726;4.346;2024-02-26T00:14:33;10.52;;;5.45;;
85160;SDS011;75526;43.726;4.346;2024-02-26T00:16:59;8.88;;;5.07;;
85160;SDS011;75526;43.726;4.346;2024-02-26T00:19:25;8.93;;;5.30;;
85160;SDS011;75526;43.726;4.346;2024-02-26T00:21:51;11.30;;;5.25;;
85160;SDS011;75526;43.726;4.346;2024-02-26T00:24:20;10.45;;;5.47;;
85160;SDS011;75526;43.726;4.346;2024-02-26T00:26:46;10.05;;;5.40;;
85160;SDS011;75526;43.726;4.346;2024-02-26T00:29:17;9.20;;;5.18;;
85160;SDS011;75526;43.726;4.346;2024-02-26T00:31:43;9.23;;;5.00;;
85160;SDS011;75526;43.726;4.346;2024-02-26T00:34:09;9.05;;;5.05;;
85160;SDS011;75526;43.726;4.346;2024-02-26T00:36:35;10.07;;;5.35;;
85160;SDS011;75526;43.726;4.346;2024-02-26T00:39:01;14.52;;;6.97;;
85160;SDS011;75526;43.726;4.346;2024-02-26T00:41:28;13.40;;;6.70;;
85160;SDS011;75526;43.726;4.346;2024-02-26T00:43:54;12.57;;;6.20;;
85160;SDS011;75526;43.726;4.346;2024-02-26T00:46:20;11.60;;;6.22;;
85160;SDS011;75526;43.726;4.346;2024-02-26T00:48:46;10.70;;;6.18;;
85160;SDS011;75526;43.726;4.346;2024-02-26T00:51:15;15.35;;;7.20;;
85160;SDS011;75526;43.726;4.346;2024-02-26T00:53:41;14.13;;;7.60;;
85160;SDS011;75526;43.726;4.346;2024-02-26T00:56:07;12.37;;;6.87;;
85160;SDS011;75526;43.726;4.346;2024-02-26T00:58:33;12.35;;;7.07;;
85160;SDS011;75526;43.726;4.346;2024-02-26T01:00:59;11.70;;;6.30;;
85160;SDS011;75526;43.726;4.346;2024-02-26T01:03:25;10.02;;;5.60;;
85160;SDS011;75526;43.726;4.346;2024-02-26T01:05:51;9.23;;;4.85;;
85160;SDS011;75526;43.726;4.346;2024-02-26T01:08:17;7.10;;;3.97;;
85160;SDS011;75526;43.726;4.346;2024-02-26T01:10:43;7.97;;;4.30;;
85160;SDS011;75526;43.726;4.346;2024-02-26T01:13:09;8.10;;;4.30;;
85160;SDS011;75526;43.726;4.346;2024-02-26T01:15:35;8.75;;;4.10;;
85160;SDS011;75526;43.726;4.346;2024-02-26T01:18:01;8.40;;;4.30;;
85160;SDS011;75526;43.726;4.346;2024-02-26T01:20:27;8.20;;;4.50;;
85160;SDS011;75526;43.726;4.346;2024-02-26T01:22:53;7.82;;;4.10;;
85160;SDS011;75526;43.726;4.346;2024-02-26T01:25:19;8.55;;;3.95;;
85160;SDS011;75526;43.726;4.346;2024-02-26T01:27:45;8.38;;;4.47;;
85160;SDS011;75526;43.726;4.346;2024-02-26T01:30:11;8.40;;;4.35;;
85160;SDS011;75526;43.726;4.346;2024-02-26T01:32:37;7.80;;;3.63;;
85160;SDS011;75526;43.726;4.346;2024-02-26T01:35:03;8.90;;;4.05;;
85160;SDS011;75526;43.726;4.346;2024-02-26T01:37:30;7.03;;;3.75;;
85160;SDS011;75526;43.726;4.346;2024-02-26T01:39:56;7.75;;;4.20;;
85160;SDS011;75526;43.726;4.346;2024-02-26T01:42:22;8.10;;;4.05;;
85160;SDS011;75526;43.726;4.346;2024-02-26T01:44:48;8.33;;;4.40;;
85160;SDS011;75526;43.726;4.346;2024-02-26T01:47:14;7.13;;;3.83;;
85160;SDS011;75526;43.726;4.346;2024-02-26T01:49:40;7.05;;;3.90;;
85160;SDS011;75526;43.726;4.346;2024-02-26T01:52:07;8.65;;;4.40;;
85160;SDS011;75526;43.726;4.346;2024-02-26T01:54:35;6.57;;;3.97;;
85160;SDS011;75526;43.726;4.346;2024-02-26T01:57:02;9.83;;;5.23;;
85160;SDS011;75526;43.726;4.346;2024-02-26T01:59:29;7.28;;;4.30;;
85160;SDS011;75526;43.726;4.346;2024-02-26T02:01:55;5.28;;;2.85;;
85160;SDS011;75526;43.726;4.346;2024-02-26T02:04:23;5.47;;;3.00;;
85160;SDS011;75526;43.726;4.346;2024-02-26T02:06:50;6.60;;;3.15;;
85160;SDS011;75526;43.726;4.346;2024-02-26T02:09:16;6.10;;;3.33;;
85160;SDS011;75526;43.726;4.346;2024-02-26T02:11:42;5.90;;;3.08;;
85160;SDS011;75526;43.726;4.346;2024-02-26T02:14:09;7.47;;;3.08;;
85160;SDS011;75526;43.726;4.346;2024-02-26T02:16:35;5.72;;;3.33;;
85160;SDS011;75526;43.726;4.346;2024-02-26T02:19:01;6.15;;;3.38;;
85160;SDS011;75526;43.726;4.346;2024-02-26T02:21:27;6.53;;;3.50;;
85160;SDS011;75526;43.726;4.346;2024-02-26T02:23:53;6.22;;;3.22;;
85160;SDS011;75526;43.726;4.346;2024-02-26T02:26:19;4.95;;;2.97;;
85160;SDS011;75526;43.726;4.346;2024-02-26T02:28:46;5.30;;;2.80;;
85160;SDS011;75526;43.726;4.346;2024-02-26T02:31:13;5.07;;;2.90;;
85160;SDS011;75526;43.726;4.346;2024-02-26T02:33:39;6.03;;;2.70;;
85160;SDS011;75526;43.726;4.346;2024-02-26T02:36:05;4.90;;;2.40;;
85160;SDS011;75526;43.726;4.346;2024-02-26T02:38:34;5.00;;;2.60;;
85160;SDS011;75526;43.726;4.346;2024-02-26T02:41:00;5.35;;;3.10;;
85160;SDS011;75526;43.726;4.346;2024-02-26T02:43:27;4.60;;;2.65;;
85160;SDS011;75526;43.726;4.346;2024-02-26T02:45:53;5.13;;;2.63;;
85160;SDS011;75526;43.726;4.346;2024-02-26T02:48:19;5.63;;;3.10;;
85160;SDS011;75526;43.726;4.346;2024-02-26T02:50:45;6.50;;;3.20;;
85160;SDS011;75526;43.726;4.346;2024-02-26T02:53:11;6.10;;;3.28;;
85160;SDS011;75526;43.726;4.346;2024-02-26T02:55:37;6.00;;;3.20;;
85160;SDS011;75526;43.726;4.346;2024-02-26T02:58:03;6.40;;;3.30;;
85160;SDS011;75526;43.726;4.346;2024-02-26T03:00:29;6.70;;;3.63;;
85160;SDS011;75526;43.726;4.346;2024-02-26T03:02:55;7.68;;;3.63;;
85160;SDS011;75526;43.726;4.346;2024-02-26T03:05:21;7.63;;;3.60;;
85160;SDS011;75526;43.726;4.346;2024-02-26T03:07:47;7.40;;;3.83;;
85160;SDS011;75526;43.726;4.346;2024-02-26T03:10:13;7.73;;;3.80;;
85160;SDS011;75526;43.726;4.346;2024-02-26T03:12:39;8.05;;;3.88;;
85160;SDS011;75526;43.726;4.346;2024-02-26T03:15:05;10.18;;;4.60;;
85160;SDS011;75526;43.726;4.346;2024-02-26T03:17:31;9.38;;;4.78;;
85160;SDS011;75526;43.726;4.346;2024-02-26T03:19:57;7.80;;;4.40;;
85160;SDS011;75526;43.726;4.346;2024-02-26T03:22:24;8.20;;;4.40;;
85160;SDS011;75526;43.726;4.346;2024-02-26T03:24:50;8.07;;;4.40;;
85160;SDS011;75526;43.726;4.346;2024-02-26T03:27:16;8.60;;;4.30;;
85160;SDS011;75526;43.726;4.346;2024-02-26T03:29:42;8.05;;;4.40;;
85160;SDS011;75526;43.726;4.346;2024-02-26T03:32:08;8.43;;;4.43;;
85160;SDS011;75526;43.726;4.346;2024-02-26T03:34:34;9.00;;;4.43;;
85160;SDS011;75526;43.726;4.346;2024-02-26T03:37:00;8.68;;;4.55;;
85160;SDS011;75526;43.726;4.346;2024-02-26T03:39:26;10.77;;;5.15;;
85160;SDS011;75526;43.726;4.346;2024-02-26T03:41:52;10.55;;;4.80;;
85160;SDS011;75526;43.726;4.346;2024-02-26T03:44:19;14.63;;;4.90;;
85160;SDS011;75526;43.726;4.346;2024-02-26T03:46:45;10.33;;;4.67;;
85160;SDS011;75526;43.726;4.346;2024-02-26T03:49:11;12.60;;;4.80;;
85160;SDS011;75526;43.726;4.346;2024-02-26T03:51:38;12.13;;;5.10;;
85160;SDS011;75526;43.726;4.346;2024-02-26T03:54:04;14.48;;;5.38;;
85160;SDS011;75526;43.726;4.346;2024-02-26T03:56:30;10.30;;;4.95;;
85160;SDS011;75526;43.726;4.346;2024-02-26T03:58:56;11.10;;;5.10;;
85160;SDS011;75526;43.726;4.346;2024-02-26T04:01:24;10.60;;;4.88;;
85160;SDS011;75526;43.726;4.346;2024-02-26T04:03:50;10.02;;;4.93;;
85160;SDS011;75526;43.726;4.346;2024-02-26T04:06:18;10.48;;;4.97;;
85160;SDS011;75526;43.726;4.346;2024-02-26T04:08:46;9.48;;;4.70;;
85160;SDS011;75526;43.726;4.346;2024-02-26T04:11:12;10.90;;;5.20;;
85160;SDS011;75526;43.726;4.346;2024-02-26T04:13:42;12.27;;;5.65;;
85160;SDS011;75526;43.726;4.346;2024-02-26T04:16:10;11.00;;;5.38;;
85160;SDS011;75526;43.726;4.346;2024-02-26T04:18:37;13.30;;;5.38;;
85160;SDS011;75526;43.726;4.346;2024-02-26T04:21:03;11.30;;;5.07;;
85160;SDS011;75526;43.726;4.346;2024-02-26T04:23:32;10.27;;;5.13;;
85160;SDS011;75526;43.726;4.346;2024-02-26T04:25:58;14.60;;;5.32;;
85160;SDS011;75526;43.726;4.346;2024-02-26T04:28:24;10.02;;;4.82;;
85160;SDS011;75526;43.726;4.346;2024-02-26T04:30:56;10.40;;;5.03;;
85160;SDS011;75526;43.726;4.346;2024-02-26T04:33:22;9.73;;;5.00;;
85160;SDS011;75526;43.726;4.346;2024-02-26T04:35:48;9.87;;;5.00;;
85160;SDS011;75526;43.726;4.346;2024-02-26T04:38:14;9.52;;;4.63;;
85160;SDS011;75526;43.726;4.346;2024-02-26T04:40:40;10.00;;;4.95;;
85160;SDS011;75526;43.726;4.346;2024-02-26T04:43:06;9.80;;;4.95;;
85160;SDS011;75526;43.726;4.346;2024-02-26T04:45:32;8.90;;;4.72;;
85160;SDS011;75526;43.726;4.346;2024-02-26T04:47:59;9.80;;;4.43;;
85160;SDS011;75526;43.726;4.346;2024-02-26T04:50:25;9.00;;;4.40;;
85160;SDS011;75526;43.726;4.346;2024-02-26T04:52:51;10.55;;;5.32;;
85160;SDS011;75526;43.726;4.346;2024-02-26T04:55:17;9.05;;;5.00;;
85160;SDS011;75526;43.726;4.346;2024-02-26T04:57:43;8.68;;;4.70;;
85160;SDS011;75526;43.726;4.346;2024-02-26T05:00:09;8.83;;;4.50;;
85160;SDS011;75526;43.726;4.346;2024-02-26T05:02:35;8.70;;;4.40;;
85160;SDS011;75526;43.726;4.346;2024-02-26T05:05:04;8.18;;;4.28;;
85160;SDS011;75526;43.726;4.346;2024-02-26T05:07:30;7.68;;;4.10;;
85160;SDS011;75526;43.726;4.346;2024-02-26T05:09:57;7.38;;;4.00;;
85160;SDS011;75526;43.726;4.346;2024-02-26T05:12:23;7.80;;;3.93;;
85160;SDS011;75526;43.726;4.346;2024-02-26T05:14:51;8.80;;;4.05;;
85160;SDS011;75526;43.726;4.346;2024-02-26T05:17:17;7.82;;;4.05;;
85160;SDS011;75526;43.726;4.346;2024-02-26T05:19:43;7.45;;;3.60;;
85160;SDS011;75526;43.726;4.346;2024-02-26T05:22:09;7.38;;;3.83;;
85160;SDS011;75526;43.726;4.346;2024-02-26T05:24:37;7.33;;;3.50;;
85160;SDS011;75526;43.726;4.346;2024-02-26T05:27:04;8.18;;;4.00;;
85160;SDS011;75526;43.726;4.346;2024-02-26T05:29:30;8.52;;;3.92;;
85160;SDS011;75526;43.726;4.346;2024-02-26T05:31:56;8.45;;;4.03;;
85160;SDS011;75526;43.726;4.346;2024-02-26T05:34:22;8.50;;;4.15;;
85160;SDS011;75526;43.726;4.346;2024-02-26T05:36:48;8.50;;;3.97;;
85160;SDS011;75526;43.726;4.346;2024-02-26T05:39:14;7.97;;;3.85;;
85160;SDS011;75526;43.726;4.346;2024-02-26T05:41:41;7.95;;;4.10;;
85160;SDS011;75526;43.726;4.346;2024-02-26T05:44:08;8.18;;;3.88;;
85160;SDS011;75526;43.726;4.346;2024-02-26T05:46:35;8.05;;;3.92;;
85160;SDS011;75526;43.726;4.346;2024-02-26T05:49:01;7.10;;;3.73;;
85160;SDS011;75526;43.726;4.346;2024-02-26T05:51:28;7.68;;;3.63;;
85160;SDS011;75526;43.726;4.346;2024-02-26T05:53:54;8.77;;;3.85;;
85160;SDS011;75526;43.726;4.346;2024-02-26T05:56:23;7.85;;;3.60;;
85160;SDS011;75526;43.726;4.346;2024-02-26T05:58:49;6.20;;;3.05;;
85160;SDS011;75526;43.726;4.346;2024-02-26T06:01:15;8.07;;;3.13;;
85160;SDS011;75526;43.726;4.346;2024-02-26T06:03:42;6.25;;;3.35;;
85160;SDS011;75526;43.726;4.346;2024-02-26T06:06:08;8.30;;;3.63;;
85160;SDS011;75526;43.726;4.346;2024-02-26T06:08:34;7.35;;;3.35;;
85160;SDS011;75526;43.726;4.346;2024-02-26T06:11:04;6.70;;;3.40;;
85160;SDS011;75526;43.726;4.346;2024-02-26T06:13:30;7.20;;;3.43;;
85160;SDS011;75526;43.726;4.346;2024-02-26T06:15:56;9.98;;;4.18;;
85160;SDS011;75526;43.726;4.346;2024-02-26T06:18:22;8.88;;;4.45;;
85160;SDS011;75526;43.726;4.346;2024-02-26T06:20:48;6.70;;;3.40;;
85160;SDS011;75526;43.726;4.346;2024-02-26T06:23:15;6.45;;;3.28;;
85160;SDS011;75526;43.726;4.346;2024-02-26T06:25:41;6.60;;;3.20;;
85160;SDS011;75526;43.726;4.346;2024-02-26T06:28:11;7.70;;;3.10;;
85160;SDS011;75526;43.726;4.346;2024-02-26T06:30:37;6.97;;;3.20;;
85160;SDS011;75526;43.726;4.346;2024-02-26T06:33:03;7.03;;;3.50;;
85160;SDS011;75526;43.726;4.346;2024-02-26T06:35:29;6.47;;;3.10;;
85160;SDS011;75526;43.726;4.346;2024-02-26T06:37:55;6.83;;;3.40;;
85160;SDS011;75526;43.726;4.346;2024-02-26T06:40:21;7.43;;;3.50;;
85160;SDS011;75526;43.726;4.346;2024-02-26T06:42:47;8.57;;;3.67;;
85160;SDS011;75526;43.726;4.346;2024-02-26T06:45:15;6.95;;;3.38;;
85160;SDS011;75526;43.726;4.346;2024-02-26T06:47:41;5.85;;;2.70;;
85160;SDS011;75526;43.726;4.346;2024-02-26T06:50:08;6.10;;;2.87;;
85160;SDS011;75526;43.726;4.346;2024-02-26T06:52:34;6.50;;;2.90;;
85160;SDS011;75526;43.726;4.346;2024-02-26T06:55:00;7.55;;;3.13;;
85160;SDS011;75526;43.726;4.346;2024-02-26T06:57:26;6.97;;;3.60;;
85160;SDS011;75526;43.726;4.346;2024-02-26T06:59:52;9.35;;;4.82;;
85160;SDS011;75526;43.726;4.346;2024-02-26T07:02:18;11.63;;;5.83;;
85160;SDS011;75526;43.726;4.346;2024-02-26T07:04:44;10.88;;;5.68;;
85160;SDS011;75526;43.726;4.346;2024-02-26T07:07:10;7.25;;;3.30;;
85160;SDS011;75526;43.726;4.346;2024-02-26T07:09:36;5.25;;;2.22;;
85160;SDS011;75526;43.726;4.346;2024-02-26T07:12:02;4.05;;;1.77;;
85160;SDS011;75526;43.726;4.346;2024-02-26T07:14:28;4.37;;;2.00;;
85160;SDS011;75526;43.726;4.346;2024-02-26T07:16:55;4.72;;;2.00;;
85160;SDS011;75526;43.726;4.346;2024-02-26T07:19:21;5.80;;;2.90;;
85160;SDS011;75526;43.726;4.346;2024-02-26T07:21:47;5.60;;;2.60;;
85160;SDS011;75526;43.726;4.346;2024-02-26T07:24:13;6.10;;;2.95;;
85160;SDS011;75526;43.726;4.346;2024-02-26T07:26:39;8.07;;;3.67;;
85160;SDS011;75526;43.726;4.346;2024-02-26T07:29:05;5.53;;;2.78;;
85160;SDS011;75526;43.726;4.346;2024-02-26T07:31:31;4.38;;;2.20;;
85160;SDS011;75526;43.726;4.346;2024-02-26T07:33:57;3.72;;;1.80;;
85160;SDS011;75526;43.726;4.346;2024-02-26T07:36:23;3.60;;;1.90;;
85160;SDS011;75526;43.726;4.346;2024-02-26T07:38:49;3.97;;;1.60;;
85160;SDS011;75526;43.726;4.346;2024-02-26T07:41:19;4.35;;;1.60;;
85160;SDS011;75526;43.726;4.346;2024-02-26T07:43:45;5.18;;;2.00;;
85160;SDS011;75526;43.726;4.346;2024-02-26T07:46:11;3.60;;;1.80;;
85160;SDS011;75526;43.726;4.346;2024-02-26T07:48:37;3.97;;;1.75;;
85160;SDS011;75526;43.726;4.346;2024-02-26T07:51:04;3.40;;;1.77;;
85160;SDS011;75526;43.726;4.346;2024-02-26T07:53:30;4.35;;;1.90;;
85160;SDS011;75526;43.726;4.346;2024-02-26T07:55:56;4.28;;;2.10;;
85160;SDS011;75526;43.726;4.346;2024-02-26T07:58:25;4.50;;;2.10;;
85160;SDS011;75526;43.726;4.346;2024-02-26T08:00:51;4.82;;;2.28;;
85160;SDS011;75526;43.726;4.346;2024-02-26T08:03:17;3.90;;;2.07;;
85160;SDS011;75526;43.726;4.346;2024-02-26T08:05:43;4.60;;;2.00;;
85160;SDS011;75526;43.726;4.346;2024-02-26T08:08:09;3.75;;;1.80;;
85160;SDS011;75526;43.726;4.346;2024-02-26T08:10:35;4.60;;;2.10;;
85160;SDS011;75526;43.726;4.346;2024-02-26T08:13:01;4.55;;;1.90;;
85160;SDS011;75526;43.726;4.346;2024-02-26T08:15:31;4.50;;;1.87;;
85160;SDS011;75526;43.726;4.346;2024-02-26T08:17:57;3.83;;;1.90;;
85160;SDS011;75526;43.726;4.346;2024-02-26T08:20:23;4.40;;;1.90;;
85160;SDS011;75526;43.726;4.346;2024-02-26T08:22:49;4.40;;;1.73;;
85160;SDS011;75526;43.726;4.346;2024-02-26T08:25:15;4.60;;;1.90;;
85160;SDS011;75526;43.726;4.346;2024-02-26T08:27:43;4.87;;;2.00;;
85160;SDS011;75526;43.726;4.346;2024-02-26T08:30:10;4.60;;;2.38;;
85160;SDS011;75526;43.726;4.346;2024-02-26T08:32:40;4.20;;;2.38;;
85160;SDS011;75526;43.726;4.346;2024-02-26T08:35:06;5.40;;;2.33;;
85160;SDS011;75526;43.726;4.346;2024-02-26T08:37:32;4.65;;;2.35;;
85160;SDS011;75526;43.726;4.346;2024-02-26T08:39:58;6.13;;;2.80;;
85160;SDS011;75526;43.726;4.346;2024-02-26T08:42:24;4.75;;;2.60;;
85160;SDS011;75526;43.726;4.346;2024-02-26T08:44:50;5.47;;;2.60;;
85160;SDS011;75526;43.726;4.346;2024-02-26T08:47:16;6.10;;;2.70;;
85160;SDS011;75526;43.726;4.346;2024-02-26T08:49:43;6.18;;;2.33;;
85160;SDS011;75526;43.726;4.346;2024-02-26T08:52:10;5.10;;;2.30;;
85160;SDS011;75526;43.726;4.346;2024-02-26T08:54:36;5.57;;;2.13;;
85160;SDS011;75526;43.726;4.346;2024-02-26T08:57:02;4.63;;;1.50;;
85160;SDS011;75526;43.726;4.346;2024-02-26T08:59:28;5.07;;;1.83;;
85160;SDS011;75526;43.726;4.346;2024-02-26T09:01:54;5.18;;;1.70;;
85160;SDS011;75526;43.726;4.346;2024-02-26T09:04:20;4.80;;;1.60;;
85160;SDS011;75526;43.726;4.346;2024-02-26T09:06:46;5.13;;;1.85;;
85160;SDS011;75526;43.726;4.346;2024-02-26T09:09:12;7.82;;;2.20;;
85160;SDS011;75526;43.726;4.346;2024-02-26T09:11:38;3.95;;;1.80;;
85160;SDS011;75526;43.726;4.346;2024-02-26T09:14:04;4.25;;;1.88;;
85160;SDS011;75526;43.726;4.346;2024-02-26T09:16:30;5.07;;;1.93;;
85160;SDS011;75526;43.726;4.346;2024-02-26T09:18:56;4.78;;;1.70;;
85160;SDS011;75526;43.726;4.346;2024-02-26T09:21:23;4.45;;;1.50;;
85160;SDS011;75526;43.726;4.346;2024-02-26T09:23:50;5.82;;;1.70;;
85160;SDS011;75526;43.726;4.346;2024-02-26T09:26:16;3.40;;;1.30;;
85160;SDS011;75526;43.726;4.346;2024-02-26T09:28:43;3.67;;;1.40;;
85160;SDS011;75526;43.726;4.346;2024-02-26T09:31:09;4.85;;;2.05;;
85160;SDS011;75526;43.726;4.346;2024-02-26T09:33:35;4.78;;;1.80;;
85160;SDS011;75526;43.726;4.346;2024-02-26T09:36:01;6.20;;;1.90;;
85160;SDS011;75526;43.726;4.346;2024-02-26T09:38:28;5.07;;;1.80;;
85160;SDS011;75526;43.726;4.346;2024-02-26T09:40:56;5.33;;;1.70;;
85160;SDS011;75526;43.726;4.346;2024-02-26T09:43:22;4.10;;;1.70;;
85160;SDS011;75526;43.726;4.346;2024-02-26T09:45:52;3.33;;;1.65;;
85160;SDS011;75526;43.726;4.346;2024-02-26T09:48:19;5.05;;;1.80;;
85160;SDS011;75526;43.726;4.346;2024-02-26T09:50:45;3.70;;;1.50;;
85160;SDS011;75526;43.726;4.346;2024-02-26T09:53:12;5.10;;;1.80;;
85160;SDS011;75526;43.726;4.346;2024-02-26T09:55:39;4.50;;;1.80;;
85160;SDS011;75526;43.726;4.346;2024-02-26T09:58:06;4.50;;;1.73;;
85160;SDS011;75526;43.726;4.346;2024-02-26T10:00:32;4.10;;;1.40;;
85160;SDS011;75526;43.726;4.346;2024-02-26T10:03:02;4.20;;;1.70;;
85160;SDS011;75526;43.726;4.346;2024-02-26T10:05:29;3.73;;;1.50;;
85160;SDS011;75526;43.726;4.346;2024-02-26T10:07:56;3.20;;;1.33;;
85160;SDS011;75526;43.726;4.346;2024-02-26T10:10:22;4.85;;;1.50;;
85160;SDS011;75526;43.726;4.346;2024-02-26T10:12:49;6.80;;;2.03;;
85160;SDS011;75526;43.726;4.346;2024-02-26T10:15:15;6.47;;;1.95;;
85160;SDS011;75526;43.726;4.346;2024-02-26T10:17:41;6.63;;;1.80;;
85160;SDS011;75526;43.726;4.346;2024-02-26T10:20:16;6.20;;;1.55;;
85160;SDS011;75526;43.726;4.346;2024-02-26T10:22:43;7.15;;;2.13;;
85160;SDS011;75526;43.726;4.346;2024-02-26T10:25:09;7.55;;;1.80;;
85160;SDS011;75526;43.726;4.346;2024-02-26T10:27:35;4.25;;;1.65;;
85160;SDS011;75526;43.726;4.346;2024-02-26T10:30:12;3.60;;;1.83;;
85160;SDS011;75526;43.726;4.346;2024-02-26T10:32:42;4.47;;;1.60;;
85160;SDS011;75526;43.726;4.346;2024-02-26T10:35:09;4.80;;;1.52;;
85160;SDS011;75526;43.726;4.346;2024-02-26T10:37:35;3.63;;;1.30;;
85160;SDS011;75526;43.726;4.346;2024-02-26T10:40:01;6.20;;;1.70;;
85160;SDS011;75526;43.726;4.346;2024-02-26T10:42:28;5.33;;;1.50;;
85160;SDS011;75526;43.726;4.346;2024-02-26T10:44:54;3.13;;;1.40;;
85160;SDS011;75526;43.726;4.346;2024-02-26T10:47:20;4.30;;;1.27;;
85160;SDS011;75526;43.726;4.346;2024-02-26T10:49:47;4.32;;;1.30;;
85160;SDS011;75526;43.726;4.346;2024-02-26T10:52:13;4.68;;;1.50;;
85160;SDS011;75526;43.726;4.346;2024-02-26T10:54:41;3.33;;;1.40;;
85160;SDS011;75526;43.726;4.346;2024-02-26T10:57:09;5.88;;;1.73;;
85160;SDS011;75526;43.726;4.346;2024-02-26T10:59:36;4.10;;;1.50;;
85160;SDS011;75526;43.726;4.346;2024-02-26T11:02:02;3.75;;;1.33;;
85160;SDS011;75526;43.726;4.346;2024-02-26T11:04:28;4.80;;;1.30;;
85160;SDS011;75526;43.726;4.346;2024-02-26T11:06:56;3.83;;;1.10;;
85160;SDS011;75526;43.726;4.346;2024-02-26T11:09:23;3.33;;;1.05;;
85160;SDS011;75526;43.726;4.346;2024-02-26T11:11:49;3.25;;;1.00;;
85160;SDS011;75526;43.726;4.346;2024-02-26T11:14:19;4.13;;;1.10;;
85160;SDS011;75526;43.726;4.346;2024-02-26T11:16:46;3.88;;;1.00;;
85160;SDS011;75526;43.726;4.346;2024-02-26T11:19:13;4.10;;;1.10;;
85160;SDS011;75526;43.726;4.346;2024-02-26T11:21:39;3.20;;;1.25;;
85160;SDS011;75526;43.726;4.346;2024-02-26T11:24:13;4.68;;;1.40;;
85160;SDS011;75526;43.726;4.346;2024-02-26T11:26:47;3.60;;;1.10;;
85160;SDS011;75526;43.726;4.346;2024-02-26T11:29:17;4.63;;;1.67;;
85160;SDS011;75526;43.726;4.346;2024-02-26T11:31:45;3.83;;;1.10;;
85160;SDS011;75526;43.726;4.346;2024-02-26T11:34:12;6.35;;;1.10;;
85160;SDS011;75526;43.726;4.346;2024-02-26T11:36:38;2.83;;;0.90;;
85160;SDS011;75526;43.726;4.346;2024-02-26T11:39:04;3.97;;;1.00;;
85160;SDS011;75526;43.726;4.346;2024-02-26T11:41:31;3.80;;;1.08;;
85160;SDS011;75526;43.726;4.346;2024-02-26T11:43:57;5.23;;;1.67;;
85160;SDS011;75526;43.726;4.346;2024-02-26T11:48:54;4.95;;;1.25;;
85160;SDS011;75526;43.726;4.346;2024-02-26T11:51:24;4.45;;;1.20;;
85160;SDS011;75526;43.726;4.346;2024-02-26T11:53:50;4.05;;;1.85;;
85160;SDS011;75526;43.726;4.346;2024-02-26T11:58:43;5.22;;;1.55;;
85160;SDS011;75526;43.726;4.346;2024-02-26T12:03:54;3.63;;;1.30;;
85160;SDS011;75526;43.726;4.346;2024-02-26T12:06:20;5.30;;;1.98;;
85160;SDS011;75526;43.726;4.346;2024-02-26T12:08:46;5.47;;;2.20;;
85160;SDS011;75526;43.726;4.346;2024-02-26T12:11:15;6.82;;;1.92;;
85160;SDS011;75526;43.726;4.346;2024-02-26T12:13:41;4.50;;;1.30;;
85160;SDS011;75526;43.726;4.346;2024-02-26T12:16:08;4.72;;;1.33;;
85160;SDS011;75526;43.726;4.346;2024-02-26T12:18:34;3.42;;;1.50;;
85160;SDS011;75526;43.726;4.346;2024-02-26T12:21:01;4.40;;;1.37;;
85160;SDS011;75526;43.726;4.346;2024-02-26T12:23:27;4.70;;;1.30;;
85160;SDS011;75526;43.726;4.346;2024-02-26T12:25:53;6.10;;;2.53;;
85160;SDS011;75526;43.726;4.346;2024-02-26T12:28:20;7.40;;;1.95;;
85160;SDS011;75526;43.726;4.346;2024-02-26T12:30:46;4.38;;;1.45;;
85160;SDS011;75526;43.726;4.346;2024-02-26T12:33:12;6.73;;;2.13;;
85160;SDS011;75526;43.726;4.346;2024-02-26T12:35:38;7.50;;;2.55;;
85160;SDS011;75526;43.726;4.346;2024-02-26T12:38:04;5.00;;;1.40;;
85160;SDS011;75526;43.726;4.346;2024-02-26T12:40:33;4.95;;;1.63;;
85160;SDS011;75526;43.726;4.346;2024-02-26T12:42:59;10.40;;;4.50;;
85160;SDS011;75526;43.726;4.346;2024-02-26T12:45:25;8.30;;;3.60;;
85160;SDS011;75526;43.726;4.346;2024-02-26T12:47:52;6.53;;;2.60;;
85160;SDS011;75526;43.726;4.346;2024-02-26T12:50:18;7.00;;;1.90;;
85160;SDS011;75526;43.726;4.346;2024-02-26T12:52:45;7.03;;;2.25;;
85160;SDS011;75526;43.726;4.346;2024-02-26T12:55:14;7.55;;;2.47;;
85160;SDS011;75526;43.726;4.346;2024-02-26T12:57:41;4.07;;;1.50;;
85160;SDS011;75526;43.726;4.346;2024-02-26T13:00:13;7.65;;;2.30;;
85160;SDS011;75526;43.726;4.346;2024-02-26T13:02:40;8.00;;;2.55;;
85160;SDS011;75526;43.726;4.346;2024-02-26T13:05:09;7.63;;;2.20;;
85160;SDS011;75526;43.726;4.346;2024-02-26T13:07:40;6.60;;;2.15;;
85160;SDS011;75526;43.726;4.346;2024-02-26T13:10:07;6.50;;;2.23;;
85160;SDS011;75526;43.726;4.346;2024-02-26T13:12:33;9.68;;;2.72;;
85160;SDS011;75526;43.726;4.346;2024-02-26T13:14:59;6.53;;;2.40;;
85160;SDS011;75526;43.726;4.346;2024-02-26T13:17:25;14.80;;;3.97;;
85160;SDS011;75526;43.726;4.346;2024-02-26T13:19:53;8.65;;;3.00;;
85160;SDS011;75526;43.726;4.346;2024-02-26T13:22:22;6.87;;;2.00;;
85160;SDS011;75526;43.726;4.346;2024-02-26T13:24:55;5.80;;;1.73;;
85160;SDS011;75526;43.726;4.346;2024-02-26T13:27:22;6.55;;;1.90;;
85160;SDS011;75526;43.726;4.346;2024-02-26T13:29:48;7.28;;;2.53;;
85160;SDS011;75526;43.726;4.346;2024-02-26T13:32:14;10.60;;;4.57;;
85160;SDS011;75526;43.726;4.346;2024-02-26T13:34:40;8.47;;;2.80;;
85160;SDS011;75526;43.726;4.346;2024-02-26T13:37:07;5.82;;;1.88;;
85160;SDS011;75526;43.726;4.346;2024-02-26T13:39:34;5.93;;;2.03;;
85160;SDS011;75526;43.726;4.346;2024-02-26T13:42:00;6.15;;;2.20;;
85160;SDS011;75526;43.726;4.346;2024-02-26T13:44:26;6.35;;;3.30;;
85160;SDS011;75526;43.726;4.346;2024-02-26T13:46:52;6.07;;;2.00;;
85160;SDS011;75526;43.726;4.346;2024-02-26T13:49:18;6.95;;;2.90;;
85160;SDS011;75526;43.726;4.346;2024-02-26T13:51:44;5.80;;;3.60;;
85160;SDS011;75526;43.726;4.346;2024-02-26T13:54:10;4.57;;;2.00;;
85160;SDS011;75526;43.726;4.346;2024-02-26T13:56:36;5.13;;;1.20;;
85160;SDS011;75526;43.726;4.346;2024-02-26T13:59:02;4.47;;;1.20;;
85160;SDS011;75526;43.726;4.346;2024-02-26T14:01:28;4.47;;;1.00;;
85160;SDS011;75526;43.726;4.346;2024-02-26T14:03:55;4.32;;;1.00;;
85160;SDS011;75526;43.726;4.346;2024-02-26T14:06:22;3.85;;;0.90;;
85160;SDS011;75526;43.726;4.346;2024-02-26T14:08:48;5.13;;;1.00;;
85160;SDS011;75526;43.726;4.346;2024-02-26T14:11:14;4.13;;;1.00;;
85160;SDS011;75526;43.726;4.346;2024-02-26T14:13:40;4.95;;;0.90;;
85160;SDS011;75526;43.726;4.346;2024-02-26T14:16:06;4.22;;;1.02;;
85160;SDS011;75526;43.726;4.346;2024-02-26T14:18:32;4.00;;;1.13;;
85160;SDS011;75526;43.726;4.346;2024-02-26T14:20:59;5.38;;;1.10;;
85160;SDS011;75526;43.726;4.346;2024-02-26T14:23:25;4.47;;;1.13;;
85160;SDS011;75526;43.726;4.346;2024-02-26T14:25:51;4.28;;;1.20;;
85160;SDS011;75526;43.726;4.346;2024-02-26T14:28:17;4.18;;;1.10;;
85160;SDS011;75526;43.726;4.346;2024-02-26T14:30:43;2.85;;;1.00;;
85160;SDS011;75526;43.726;4.346;2024-02-26T14:33:09;4.00;;;1.20;;
85160;SDS011;75526;43.726;4.346;2024-02-26T14:35:35;4.03;;;1.00;;
85160;SDS011;75526;43.726;4.346;2024-02-26T14:38:01;6.55;;;1.10;;
85160;SDS011;75526;43.726;4.346;2024-02-26T14:40:27;5.80;;;1.20;;
85160;SDS011;75526;43.726;4.346;2024-02-26T14:42:53;3.53;;;0.90;;
85160;SDS011;75526;43.726;4.346;2024-02-26T14:45:19;6.10;;;1.20;;
85160;SDS011;75526;43.726;4.346;2024-02-26T14:47:45;5.23;;;1.03;;
85160;SDS011;75526;43.726;4.346;2024-02-26T14:50:11;5.60;;;1.10;;